sensor_id;sensor_type;location;lat;lon;timestamp;P1;durP1;ratioP1;P2;durP2;ratioP2
6197;SDS011;3132;42.622;23.328;2023-03-01T06:02:08;10.00;;;9.60;;
6197;SDS011;3132;42.622;23.328;2023-03-01T06:04:34;9.77;;;9.37;;
6197;SDS011;3132;42.622;23.328;2023-03-01T06:06:59;9.70;;;9.30;;
6197;SDS011;3132;42.622;23.328;2023-03-01T06:09:25;9.63;;;9.23;;
6197;SDS011;3132;42.622;23.328;2023-03-01T06:11:51;9.97;;;9.60;;
6197;SDS011;3132;42.622;23.328;2023-03-01T06:14:16;9.70;;;9.30;;
6197;SDS011;3132;42.622;23.328;2023-03-01T06:16:41;9.90;;;9.50;;
6197;SDS011;3132;42.622;23.328;2023-03-01T06:19:07;10.13;;;9.77;;
6197;SDS011;3132;42.622;23.328;2023-03-01T06:21:32;9.17;;;8.87;;
6197;SDS011;3132;42.622;23.328;2023-03-01T06:23:57;10.00;;;9.60;;
6197;SDS011;3132;42.622;23.328;2023-03-01T06:26:23;9.57;;;9.17;;
6197;SDS011;3132;42.622;23.328;2023-03-01T06:28:48;10.43;;;9.87;;
6197;SDS011;3132;42.622;23.328;2023-03-01T06:31:14;11.20;;;10.60;;
6197;SDS011;3132;42.622;23.328;2023-03-01T06:33:39;9.80;;;9.40;;
6197;SDS011;3132;42.622;23.328;2023-03-01T06:36:05;17.43;;;16.63;;
6197;SDS011;3132;42.622;23.328;2023-03-01T06:38:31;10.10;;;9.60;;
6197;SDS011;3132;42.622;23.328;2023-03-01T06:40:56;13.30;;;12.70;;
6197;SDS011;3132;42.622;23.328;2023-03-01T06:43:22;10.23;;;9.77;;
6197;SDS011;3132;42.622;23.328;2023-03-01T06:45:48;10.10;;;9.70;;
6197;SDS011;3132;42.622;23.328;2023-03-01T06:48:14;10.73;;;10.23;;
6197;SDS011;3132;42.622;23.328;2023-03-01T06:50:39;9.73;;;9.33;;
6197;SDS011;3132;42.622;23.328;2023-03-01T06:53:05;9.77;;;9.37;;
6197;SDS011;3132;42.622;23.328;2023-03-01T06:55:30;9.40;;;9.00;;
6197;SDS011;3132;42.622;23.328;2023-03-01T06:57:59;9.17;;;8.77;;
6197;SDS011;3132;42.622;23.328;2023-03-01T07:00:26;10.70;;;10.30;;
6197;SDS011;3132;42.622;23.328;2023-03-01T07:02:52;9.77;;;9.37;;
6197;SDS011;3132;42.622;23.328;2023-03-01T07:05:19;10.30;;;9.80;;
6197;SDS011;3132;42.622;23.328;2023-03-01T07:07:44;10.00;;;9.60;;
6197;SDS011;3132;42.622;23.328;2023-03-01T07:10:10;10.67;;;10.17;;
6197;SDS011;3132;42.622;23.328;2023-03-01T07:12:36;11.13;;;10.53;;
6197;SDS011;3132;42.622;23.328;2023-03-01T07:15:02;10.77;;;10.17;;
6197;SDS011;3132;42.622;23.328;2023-03-01T07:17:28;10.73;;;10.23;;
6197;SDS011;3132;42.622;23.328;2023-03-01T07:19:54;9.53;;;9.13;;
6197;SDS011;3132;42.622;23.328;2023-03-01T07:22:19;11.03;;;10.40;;
6197;SDS011;3132;42.622;23.328;2023-03-01T07:24:44;9.67;;;9.27;;
6197;SDS011;3132;42.622;23.328;2023-03-01T07:27:10;9.83;;;9.20;;
6197;SDS011;3132;42.622;23.328;2023-03-01T07:29:35;10.23;;;9.73;;
6197;SDS011;3132;42.622;23.328;2023-03-01T07:32:04;9.40;;;8.97;;
6197;SDS011;3132;42.622;23.328;2023-03-01T07:34:30;10.73;;;10.13;;
6197;SDS011;3132;42.622;23.328;2023-03-01T07:36:56;10.60;;;10.20;;
6197;SDS011;3132;42.622;23.328;2023-03-01T07:39:22;10.50;;;10.00;;
6197;SDS011;3132;42.622;23.328;2023-03-01T07:41:50;10.00;;;9.50;;
6197;SDS011;3132;42.622;23.328;2023-03-01T07:44:16;9.77;;;9.27;;
6197;SDS011;3132;42.622;23.328;2023-03-01T07:46:42;10.03;;;9.53;;
6197;SDS011;3132;42.622;23.328;2023-03-01T07:49:08;11.13;;;10.43;;
6197;SDS011;3132;42.622;23.328;2023-03-01T07:51:33;11.77;;;10.83;;
6197;SDS011;3132;42.622;23.328;2023-03-01T07:53:59;10.80;;;10.20;;
6197;SDS011;3132;42.622;23.328;2023-03-01T07:56:24;9.83;;;9.43;;
6197;SDS011;3132;42.622;23.328;2023-03-01T07:58:49;9.93;;;9.40;;
6197;SDS011;3132;42.622;23.328;2023-03-01T08:01:16;10.63;;;10.13;;
6197;SDS011;3132;42.622;23.328;2023-03-01T08:03:43;9.70;;;9.17;;
6197;SDS011;3132;42.622;23.328;2023-03-01T08:06:09;10.20;;;9.80;;
6197;SDS011;3132;42.622;23.328;2023-03-01T08:08:36;10.10;;;9.67;;
6197;SDS011;3132;42.622;23.328;2023-03-01T08:11:02;10.73;;;10.33;;
6197;SDS011;3132;42.622;23.328;2023-03-01T08:13:29;10.50;;;9.90;;
6197;SDS011;3132;42.622;23.328;2023-03-01T08:16:00;10.97;;;10.47;;
6197;SDS011;3132;42.622;23.328;2023-03-01T08:18:27;9.87;;;9.43;;
6197;SDS011;3132;42.622;23.328;2023-03-01T08:20:52;11.17;;;10.47;;
6197;SDS011;3132;42.622;23.328;2023-03-01T08:23:17;11.57;;;10.97;;
6197;SDS011;3132;42.622;23.328;2023-03-01T08:25:43;11.80;;;11.30;;
6197;SDS011;3132;42.622;23.328;2023-03-01T08:28:08;9.57;;;9.03;;
6197;SDS011;3132;42.622;23.328;2023-03-01T08:30:34;11.13;;;10.20;;
6197;SDS011;3132;42.622;23.328;2023-03-01T08:32:59;9.93;;;9.53;;
6197;SDS011;3132;42.622;23.328;2023-03-01T08:35:25;10.87;;;10.27;;
6197;SDS011;3132;42.622;23.328;2023-03-01T08:37:50;10.23;;;9.73;;
6197;SDS011;3132;42.622;23.328;2023-03-01T08:40:15;11.20;;;10.50;;
6197;SDS011;3132;42.622;23.328;2023-03-01T08:42:41;10.60;;;10.10;;
6197;SDS011;3132;42.622;23.328;2023-03-01T08:45:08;11.17;;;10.67;;
6197;SDS011;3132;42.622;23.328;2023-03-01T08:47:35;9.97;;;9.57;;
6197;SDS011;3132;42.622;23.328;2023-03-01T08:50:00;10.73;;;10.13;;
6197;SDS011;3132;42.622;23.328;2023-03-01T08:52:26;10.50;;;10.00;;
6197;SDS011;3132;42.622;23.328;2023-03-01T08:54:52;11.73;;;11.13;;
6197;SDS011;3132;42.622;23.328;2023-03-01T08:57:17;10.90;;;10.40;;
6197;SDS011;3132;42.622;23.328;2023-03-01T08:59:43;10.97;;;10.47;;
6197;SDS011;3132;42.622;23.328;2023-03-01T09:02:13;10.97;;;10.37;;
6197;SDS011;3132;42.622;23.328;2023-03-01T09:04:41;10.97;;;10.33;;
6197;SDS011;3132;42.622;23.328;2023-03-01T09:07:07;10.30;;;9.83;;
6197;SDS011;3132;42.622;23.328;2023-03-01T09:09:33;10.63;;;10.13;;
6197;SDS011;3132;42.622;23.328;2023-03-01T09:11:59;11.23;;;10.73;;
6197;SDS011;3132;42.622;23.328;2023-03-01T09:14:25;10.60;;;10.10;;
6197;SDS011;3132;42.622;23.328;2023-03-01T09:16:50;10.17;;;9.67;;
6197;SDS011;3132;42.622;23.328;2023-03-01T09:19:16;10.90;;;10.30;;
6197;SDS011;3132;42.622;23.328;2023-03-01T09:21:41;11.20;;;10.70;;
6197;SDS011;3132;42.622;23.328;2023-03-01T09:24:18;10.70;;;10.00;;
6197;SDS011;3132;42.622;23.328;2023-03-01T09:26:47;11.63;;;10.93;;
6197;SDS011;3132;42.622;23.328;2023-03-01T09:29:13;12.87;;;12.07;;
6197;SDS011;3132;42.622;23.328;2023-03-01T09:31:39;11.47;;;10.90;;
6197;SDS011;3132;42.622;23.328;2023-03-01T09:34:05;11.07;;;10.47;;
6197;SDS011;3132;42.622;23.328;2023-03-01T09:36:31;13.07;;;12.27;;
6197;SDS011;3132;42.622;23.328;2023-03-01T09:38:57;11.53;;;10.83;;
6197;SDS011;3132;42.622;23.328;2023-03-01T09:44:13;11.77;;;11.07;;
6197;SDS011;3132;42.622;23.328;2023-03-01T09:47:01;11.47;;;10.77;;
6197;SDS011;3132;42.622;23.328;2023-03-01T09:49:28;11.50;;;10.80;;
6197;SDS011;3132;42.622;23.328;2023-03-01T09:52:02;13.50;;;12.20;;
6197;SDS011;3132;42.622;23.328;2023-03-01T09:54:37;13.40;;;11.87;;
6197;SDS011;3132;42.622;23.328;2023-03-01T09:57:07;12.60;;;11.40;;
6197;SDS011;3132;42.622;23.328;2023-03-01T09:59:46;12.97;;;11.60;;
6197;SDS011;3132;42.622;23.328;2023-03-01T10:10:33;12.40;;;11.33;;
6197;SDS011;3132;42.622;23.328;2023-03-01T10:13:04;13.63;;;12.23;;
6197;SDS011;3132;42.622;23.328;2023-03-01T10:15:45;14.60;;;12.20;;
6197;SDS011;3132;42.622;23.328;2023-03-01T10:18:33;11.73;;;10.87;;
6197;SDS011;3132;42.622;23.328;2023-03-01T10:21:02;12.03;;;11.07;;
6197;SDS011;3132;42.622;23.328;2023-03-01T10:23:37;11.37;;;10.77;;
6197;SDS011;3132;42.622;23.328;2023-03-01T10:29:06;10.90;;;10.27;;
6197;SDS011;3132;42.622;23.328;2023-03-01T10:31:41;11.50;;;10.80;;
6197;SDS011;3132;42.622;23.328;2023-03-01T10:34:19;12.40;;;11.63;;
6197;SDS011;3132;42.622;23.328;2023-03-01T10:36:48;12.37;;;11.57;;
6197;SDS011;3132;42.622;23.328;2023-03-01T10:39:18;10.70;;;10.10;;
6197;SDS011;3132;42.622;23.328;2023-03-01T10:41:56;11.47;;;10.67;;
6197;SDS011;3132;42.622;23.328;2023-03-01T10:44:36;13.10;;;12.17;;
6197;SDS011;3132;42.622;23.328;2023-03-01T10:47:21;12.53;;;11.53;;
6197;SDS011;3132;42.622;23.328;2023-03-01T10:49:51;14.60;;;13.07;;
6197;SDS011;3132;42.622;23.328;2023-03-01T10:52:22;13.83;;;12.73;;
6197;SDS011;3132;42.622;23.328;2023-03-01T10:54:57;13.80;;;12.53;;
6197;SDS011;3132;42.622;23.328;2023-03-01T10:57:35;12.23;;;11.43;;
6197;SDS011;3132;42.622;23.328;2023-03-01T11:03:10;11.97;;;10.97;;
6197;SDS011;3132;42.622;23.328;2023-03-01T11:05:49;11.33;;;10.73;;
6197;SDS011;3132;42.622;23.328;2023-03-01T11:13:53;11.83;;;11.13;;
6197;SDS011;3132;42.622;23.328;2023-03-01T11:16:27;11.47;;;10.80;;
6197;SDS011;3132;42.622;23.328;2023-03-01T11:19:18;12.00;;;11.20;;
6197;SDS011;3132;42.622;23.328;2023-03-01T11:24:37;11.73;;;10.77;;
6197;SDS011;3132;42.622;23.328;2023-03-01T11:27:12;11.00;;;10.30;;
6197;SDS011;3132;42.622;23.328;2023-03-01T11:32:36;13.00;;;11.77;;
6197;SDS011;3132;42.622;23.328;2023-03-01T11:40:47;12.67;;;11.77;;
6197;SDS011;3132;42.622;23.328;2023-03-01T11:54:24;15.90;;;13.60;;
6197;SDS011;3132;42.622;23.328;2023-03-01T11:57:26;15.10;;;11.80;;
6197;SDS011;3132;42.622;23.328;2023-03-01T12:24:59;11.77;;;11.17;;
6197;SDS011;3132;42.622;23.328;2023-03-01T12:30:17;11.57;;;10.77;;
6197;SDS011;3132;42.622;23.328;2023-03-01T12:49:28;10.57;;;9.97;;
6197;SDS011;3132;42.622;23.328;2023-03-01T12:52:10;11.90;;;11.30;;
6197;SDS011;3132;42.622;23.328;2023-03-01T12:54:40;11.77;;;11.07;;
6197;SDS011;3132;42.622;23.328;2023-03-01T12:57:15;11.80;;;11.10;;
6197;SDS011;3132;42.622;23.328;2023-03-01T13:02:35;11.27;;;10.70;;
6197;SDS011;3132;42.622;23.328;2023-03-01T13:05:10;11.97;;;11.37;;
6197;SDS011;3132;42.622;23.328;2023-03-01T13:08:26;12.23;;;11.43;;
6197;SDS011;3132;42.622;23.328;2023-03-01T13:10:58;10.60;;;10.00;;
6197;SDS011;3132;42.622;23.328;2023-03-01T13:13:28;11.80;;;11.20;;
6197;SDS011;3132;42.622;23.328;2023-03-01T13:15:55;11.70;;;10.97;;
6197;SDS011;3132;42.622;23.328;2023-03-01T13:33:43;11.63;;;11.00;;
6197;SDS011;3132;42.622;23.328;2023-03-01T13:44:25;13.40;;;12.30;;
6197;SDS011;3132;42.622;23.328;2023-03-01T13:49:35;13.57;;;12.57;;
6197;SDS011;3132;42.622;23.328;2023-03-01T13:52:13;12.97;;;11.83;;
6197;SDS011;3132;42.622;23.328;2023-03-01T13:54:46;13.20;;;12.17;;
6197;SDS011;3132;42.622;23.328;2023-03-01T13:57:12;14.57;;;13.17;;
6197;SDS011;3132;42.622;23.328;2023-03-01T13:59:47;15.07;;;13.63;;
6197;SDS011;3132;42.622;23.328;2023-03-01T14:02:12;13.27;;;12.27;;
6197;SDS011;3132;42.622;23.328;2023-03-01T14:04:38;13.20;;;12.13;;
6197;SDS011;3132;42.622;23.328;2023-03-01T14:07:23;13.57;;;12.57;;
6197;SDS011;3132;42.622;23.328;2023-03-01T14:09:54;12.10;;;11.40;;
6197;SDS011;3132;42.622;23.328;2023-03-01T14:15:18;12.33;;;11.53;;
6197;SDS011;3132;42.622;23.328;2023-03-01T14:20:30;12.50;;;11.57;;
6197;SDS011;3132;42.622;23.328;2023-03-01T14:23:02;12.57;;;11.63;;
6197;SDS011;3132;42.622;23.328;2023-03-01T14:25:38;13.20;;;12.23;;
6197;SDS011;3132;42.622;23.328;2023-03-01T14:30:46;11.73;;;11.13;;
6197;SDS011;3132;42.622;23.328;2023-03-01T14:36:25;11.47;;;10.70;;
6197;SDS011;3132;42.622;23.328;2023-03-01T14:38:52;11.63;;;11.07;;
6197;SDS011;3132;42.622;23.328;2023-03-01T14:41:21;11.57;;;10.87;;
6197;SDS011;3132;42.622;23.328;2023-03-01T14:43:55;12.13;;;11.33;;
6197;SDS011;3132;42.622;23.328;2023-03-01T14:46:26;11.00;;;10.30;;
6197;SDS011;3132;42.622;23.328;2023-03-01T14:49:04;12.57;;;11.87;;
6197;SDS011;3132;42.622;23.328;2023-03-01T14:51:38;12.73;;;11.97;;
6197;SDS011;3132;42.622;23.328;2023-03-01T14:54:20;12.47;;;11.57;;
6197;SDS011;3132;42.622;23.328;2023-03-01T14:56:49;11.40;;;10.80;;
6197;SDS011;3132;42.622;23.328;2023-03-01T14:59:16;11.40;;;10.67;;
6197;SDS011;3132;42.622;23.328;2023-03-01T15:01:46;13.07;;;12.07;;
6197;SDS011;3132;42.622;23.328;2023-03-01T15:04:12;12.23;;;11.33;;
6197;SDS011;3132;42.622;23.328;2023-03-01T15:06:38;11.53;;;10.87;;
6197;SDS011;3132;42.622;23.328;2023-03-01T15:09:04;13.40;;;12.50;;
6197;SDS011;3132;42.622;23.328;2023-03-01T15:11:31;11.07;;;10.37;;
6197;SDS011;3132;42.622;23.328;2023-03-01T15:13:58;12.47;;;11.63;;
6197;SDS011;3132;42.622;23.328;2023-03-01T15:18:55;13.80;;;12.70;;
6197;SDS011;3132;42.622;23.328;2023-03-01T15:21:25;13.97;;;12.83;;
6197;SDS011;3132;42.622;23.328;2023-03-01T15:24:05;13.67;;;12.60;;
6197;SDS011;3132;42.622;23.328;2023-03-01T15:26:53;13.70;;;12.43;;
6197;SDS011;3132;42.622;23.328;2023-03-01T15:29:27;13.50;;;12.43;;
6197;SDS011;3132;42.622;23.328;2023-03-01T15:34:32;14.87;;;13.47;;
6197;SDS011;3132;42.622;23.328;2023-03-01T15:37:00;13.63;;;12.63;;
6197;SDS011;3132;42.622;23.328;2023-03-01T15:41:55;13.17;;;12.07;;
6197;SDS011;3132;42.622;23.328;2023-03-01T15:44:28;14.07;;;12.87;;
6197;SDS011;3132;42.622;23.328;2023-03-01T15:46:58;12.80;;;11.83;;
6197;SDS011;3132;42.622;23.328;2023-03-01T15:52:00;14.33;;;13.23;;
6197;SDS011;3132;42.622;23.328;2023-03-01T15:54:26;13.97;;;12.97;;
6197;SDS011;3132;42.622;23.328;2023-03-01T15:56:53;13.27;;;12.17;;
6197;SDS011;3132;42.622;23.328;2023-03-01T15:59:18;12.67;;;11.77;;
6197;SDS011;3132;42.622;23.328;2023-03-01T16:01:44;13.73;;;12.63;;
6197;SDS011;3132;42.622;23.328;2023-03-01T16:04:10;11.93;;;11.07;;
6197;SDS011;3132;42.622;23.328;2023-03-01T16:06:45;13.47;;;12.37;;
6197;SDS011;3132;42.622;23.328;2023-03-01T16:09:24;14.80;;;13.60;;
6197;SDS011;3132;42.622;23.328;2023-03-01T16:11:50;13.23;;;12.23;;
6197;SDS011;3132;42.622;23.328;2023-03-01T16:14:17;12.67;;;11.87;;
6197;SDS011;3132;42.622;23.328;2023-03-01T16:16:43;12.57;;;11.67;;
6197;SDS011;3132;42.622;23.328;2023-03-01T16:19:09;11.90;;;11.17;;
6197;SDS011;3132;42.622;23.328;2023-03-01T16:21:35;12.57;;;11.80;;
6197;SDS011;3132;42.622;23.328;2023-03-01T16:24:01;13.23;;;12.27;;
6197;SDS011;3132;42.622;23.328;2023-03-01T16:26:26;14.13;;;12.70;;
6197;SDS011;3132;42.622;23.328;2023-03-01T16:28:54;13.73;;;12.40;;
6197;SDS011;3132;42.622;23.328;2023-03-01T16:31:21;20.10;;;15.40;;
6197;SDS011;3132;42.622;23.328;2023-03-01T16:33:48;16.10;;;13.87;;
6197;SDS011;3132;42.622;23.328;2023-03-01T16:36:16;14.73;;;13.23;;
6197;SDS011;3132;42.622;23.328;2023-03-01T16:38:43;13.57;;;12.37;;
6197;SDS011;3132;42.622;23.328;2023-03-01T16:43:28;13.63;;;12.47;;
6197;SDS011;3132;42.622;23.328;2023-03-01T16:45:54;13.83;;;12.50;;
6197;SDS011;3132;42.622;23.328;2023-03-01T19:25:34;16.87;;;15.23;;
6197;SDS011;3132;42.622;23.328;2023-03-01T19:27:59;17.97;;;16.13;;
6197;SDS011;3132;42.622;23.328;2023-03-01T19:30:25;15.73;;;14.30;;
6197;SDS011;3132;42.622;23.328;2023-03-01T19:32:51;14.70;;;13.40;;
6197;SDS011;3132;42.622;23.328;2023-03-01T19:35:17;15.10;;;13.50;;
6197;SDS011;3132;42.622;23.328;2023-03-01T19:37:43;65.43;;;32.40;;
6197;SDS011;3132;42.622;23.328;2023-03-01T19:40:08;28.47;;;19.03;;
6197;SDS011;3132;42.622;23.328;2023-03-01T19:42:34;19.70;;;15.47;;
6197;SDS011;3132;42.622;23.328;2023-03-01T19:44:59;18.37;;;16.47;;
6197;SDS011;3132;42.622;23.328;2023-03-01T19:47:25;18.13;;;16.33;;
6197;SDS011;3132;42.622;23.328;2023-03-01T19:49:50;17.80;;;15.67;;
6197;SDS011;3132;42.622;23.328;2023-03-01T19:52:15;18.37;;;16.40;;
6197;SDS011;3132;42.622;23.328;2023-03-01T19:54:41;18.77;;;16.80;;
6197;SDS011;3132;42.622;23.328;2023-03-01T19:57:06;18.33;;;16.43;;
6197;SDS011;3132;42.622;23.328;2023-03-01T19:59:32;20.67;;;17.67;;
6197;SDS011;3132;42.622;23.328;2023-03-01T20:01:57;18.83;;;15.53;;
6197;SDS011;3132;42.622;23.328;2023-03-01T20:04:22;17.87;;;15.57;;
6197;SDS011;3132;42.622;23.328;2023-03-01T20:06:48;21.60;;;15.83;;
6197;SDS011;3132;42.622;23.328;2023-03-01T20:09:14;17.47;;;15.80;;
6197;SDS011;3132;42.622;23.328;2023-03-01T20:11:40;13.20;;;12.03;;
6197;SDS011;3132;42.622;23.328;2023-03-01T20:14:08;14.07;;;12.90;;
6197;SDS011;3132;42.622;23.328;2023-03-01T20:16:36;13.47;;;12.37;;
6197;SDS011;3132;42.622;23.328;2023-03-01T20:19:04;14.67;;;13.37;;
6197;SDS011;3132;42.622;23.328;2023-03-01T20:21:30;13.97;;;12.97;;
6197;SDS011;3132;42.622;23.328;2023-03-01T20:23:57;13.40;;;12.30;;
6197;SDS011;3132;42.622;23.328;2023-03-01T20:26:23;15.10;;;13.90;;
6197;SDS011;3132;42.622;23.328;2023-03-01T20:28:51;15.43;;;13.93;;
6197;SDS011;3132;42.622;23.328;2023-03-01T20:31:19;14.57;;;13.43;;
6197;SDS011;3132;42.622;23.328;2023-03-01T20:33:46;14.03;;;12.83;;
6197;SDS011;3132;42.622;23.328;2023-03-01T20:36:11;13.30;;;12.40;;
6197;SDS011;3132;42.622;23.328;2023-03-01T20:38:40;14.67;;;13.37;;
6197;SDS011;3132;42.622;23.328;2023-03-01T20:41:11;13.00;;;11.80;;
6197;SDS011;3132;42.622;23.328;2023-03-01T20:43:38;12.93;;;12.13;;
6197;SDS011;3132;42.622;23.328;2023-03-01T20:46:05;19.87;;;17.57;;
6197;SDS011;3132;42.622;23.328;2023-03-01T20:48:32;14.13;;;12.87;;
6197;SDS011;3132;42.622;23.328;2023-03-01T20:50:58;13.77;;;12.63;;
6197;SDS011;3132;42.622;23.328;2023-03-01T20:53:26;13.57;;;12.57;;
6197;SDS011;3132;42.622;23.328;2023-03-01T20:55:52;12.73;;;11.73;;
6197;SDS011;3132;42.622;23.328;2023-03-01T20:58:18;12.90;;;12.00;;
6197;SDS011;3132;42.622;23.328;2023-03-01T21:00:43;14.43;;;13.23;;
6197;SDS011;3132;42.622;23.328;2023-03-01T21:03:09;13.23;;;12.37;;
6197;SDS011;3132;42.622;23.328;2023-03-01T21:05:34;13.03;;;12.07;;
6197;SDS011;3132;42.622;23.328;2023-03-01T21:08:00;13.23;;;12.33;;
6197;SDS011;3132;42.622;23.328;2023-03-01T21:10:27;12.47;;;11.67;;
6197;SDS011;3132;42.622;23.328;2023-03-01T21:12:53;13.53;;;12.53;;
6197;SDS011;3132;42.622;23.328;2023-03-01T21:15:19;12.20;;;11.33;;
6197;SDS011;3132;42.622;23.328;2023-03-01T21:17:44;12.63;;;11.73;;
6197;SDS011;3132;42.622;23.328;2023-03-01T21:20:10;13.20;;;12.07;;
6197;SDS011;3132;42.622;23.328;2023-03-01T21:22:35;12.27;;;11.47;;
6197;SDS011;3132;42.622;23.328;2023-03-01T21:25:01;13.07;;;12.07;;
6197;SDS011;3132;42.622;23.328;2023-03-01T21:27:26;13.93;;;12.93;;
6197;SDS011;3132;42.622;23.328;2023-03-01T21:29:52;15.03;;;13.87;;
6197;SDS011;3132;42.622;23.328;2023-03-01T21:32:17;14.50;;;13.30;;
6197;SDS011;3132;42.622;23.328;2023-03-01T21:34:43;14.90;;;13.47;;
6197;SDS011;3132;42.622;23.328;2023-03-01T21:37:09;14.27;;;13.07;;
6197;SDS011;3132;42.622;23.328;2023-03-01T21:39:35;14.50;;;13.27;;
6197;SDS011;3132;42.622;23.328;2023-03-01T21:42:01;15.03;;;13.93;;
6197;SDS011;3132;42.622;23.328;2023-03-01T21:44:28;12.73;;;11.87;;
6197;SDS011;3132;42.622;23.328;2023-03-01T21:46:55;13.43;;;12.43;;
6197;SDS011;3132;42.622;23.328;2023-03-01T21:49:22;14.80;;;13.50;;
6197;SDS011;3132;42.622;23.328;2023-03-01T21:51:47;15.93;;;14.47;;
6197;SDS011;3132;42.622;23.328;2023-03-01T21:54:13;15.77;;;14.47;;
6197;SDS011;3132;42.622;23.328;2023-03-01T21:56:40;17.50;;;14.13;;
6197;SDS011;3132;42.622;23.328;2023-03-01T21:59:08;16.17;;;14.67;;
6197;SDS011;3132;42.622;23.328;2023-03-01T22:01:37;19.23;;;15.43;;
6197;SDS011;3132;42.622;23.328;2023-03-01T22:04:02;15.73;;;14.13;;
6197;SDS011;3132;42.622;23.328;2023-03-01T22:06:32;21.77;;;16.73;;
6197;SDS011;3132;42.622;23.328;2023-03-01T22:09:06;17.53;;;15.77;;
6197;SDS011;3132;42.622;23.328;2023-03-01T22:11:34;17.37;;;15.67;;
6197;SDS011;3132;42.622;23.328;2023-03-01T22:14:01;16.03;;;14.60;;
6197;SDS011;3132;42.622;23.328;2023-03-01T22:16:29;15.00;;;13.50;;
6197;SDS011;3132;42.622;23.328;2023-03-01T22:18:56;16.57;;;14.90;;
6197;SDS011;3132;42.622;23.328;2023-03-01T22:21:22;17.00;;;15.40;;
6197;SDS011;3132;42.622;23.328;2023-03-01T22:23:48;16.17;;;14.67;;
6197;SDS011;3132;42.622;23.328;2023-03-01T22:26:20;16.77;;;15.07;;
6197;SDS011;3132;42.622;23.328;2023-03-01T22:28:48;16.23;;;14.73;;
6197;SDS011;3132;42.622;23.328;2023-03-01T22:31:13;15.70;;;14.20;;
6197;SDS011;3132;42.622;23.328;2023-03-01T22:33:39;16.30;;;14.63;;
6197;SDS011;3132;42.622;23.328;2023-03-01T22:36:04;17.33;;;14.23;;
6197;SDS011;3132;42.622;23.328;2023-03-01T22:38:30;16.50;;;14.97;;
6197;SDS011;3132;42.622;23.328;2023-03-01T22:40:56;14.60;;;13.47;;
6197;SDS011;3132;42.622;23.328;2023-03-01T22:43:27;14.50;;;13.17;;
6197;SDS011;3132;42.622;23.328;2023-03-01T22:45:54;14.13;;;13.00;;
6197;SDS011;3132;42.622;23.328;2023-03-01T22:48:20;16.87;;;15.27;;
6197;SDS011;3132;42.622;23.328;2023-03-01T22:50:45;15.10;;;13.90;;
6197;SDS011;3132;42.622;23.328;2023-03-01T22:53:12;17.00;;;15.60;;
6197;SDS011;3132;42.622;23.328;2023-03-01T22:55:37;14.93;;;13.63;;
6197;SDS011;3132;42.622;23.328;2023-03-01T22:58:03;14.63;;;13.43;;
6197;SDS011;3132;42.622;23.328;2023-03-01T23:00:29;15.00;;;13.60;;
6197;SDS011;3132;42.622;23.328;2023-03-01T23:02:54;15.37;;;14.17;;
6197;SDS011;3132;42.622;23.328;2023-03-01T23:05:19;14.20;;;13.17;;
6197;SDS011;3132;42.622;23.328;2023-03-01T23:07:45;15.47;;;13.93;;
6197;SDS011;3132;42.622;23.328;2023-03-01T23:10:11;13.97;;;12.83;;
6197;SDS011;3132;42.622;23.328;2023-03-01T23:12:37;15.27;;;13.87;;
6197;SDS011;3132;42.622;23.328;2023-03-01T23:15:03;14.43;;;13.43;;
6197;SDS011;3132;42.622;23.328;2023-03-01T23:17:30;14.43;;;13.23;;
6197;SDS011;3132;42.622;23.328;2023-03-01T23:19:55;14.93;;;13.83;;
6197;SDS011;3132;42.622;23.328;2023-03-01T23:22:21;17.53;;;15.70;;
6197;SDS011;3132;42.622;23.328;2023-03-01T23:24:46;17.10;;;15.43;;
6197;SDS011;3132;42.622;23.328;2023-03-01T23:27:12;13.47;;;12.37;;
6197;SDS011;3132;42.622;23.328;2023-03-01T23:29:41;14.57;;;13.47;;
6197;SDS011;3132;42.622;23.328;2023-03-01T23:32:07;14.03;;;12.73;;
6197;SDS011;3132;42.622;23.328;2023-03-01T23:34:33;13.77;;;12.77;;
6197;SDS011;3132;42.622;23.328;2023-03-01T23:36:59;13.27;;;12.23;;
6197;SDS011;3132;42.622;23.328;2023-03-01T23:39:25;12.63;;;11.70;;
6197;SDS011;3132;42.622;23.328;2023-03-01T23:41:51;13.50;;;12.20;;
6197;SDS011;3132;42.622;23.328;2023-03-01T23:44:18;13.17;;;11.97;;
6197;SDS011;3132;42.622;23.328;2023-03-01T23:46:45;14.90;;;13.67;;
6197;SDS011;3132;42.622;23.328;2023-03-01T23:49:12;17.13;;;15.57;;
6197;SDS011;3132;42.622;23.328;2023-03-01T23:51:39;13.93;;;12.83;;
6197;SDS011;3132;42.622;23.328;2023-03-01T23:54:06;16.33;;;14.73;;
6197;SDS011;3132;42.622;23.328;2023-03-01T23:56:34;17.20;;;14.27;;
6197;SDS011;3132;42.622;23.328;2023-03-01T23:59:03;13.73;;;12.73;;
